Barrett Junction (157) Station Data

Red Flag Warning: No
Fire Weather Zone: 250
SDGE Region: Mountain Empire
Lat/Lon: 32.601/-116.685

Observations

Time Wind Speed/Gust Temp(F) RH Fuel Moist Fuel Temp(F) Dewpt(F) Tmax(F) Tmin(F) Accum Precip 10-min Precip SL Press(mb)
5/24 8:30am 41 2 G 3 71° 43% - - 47° 72.2° 57.7° - - -
5/24 8:20am 200 2 G 4 69° 45% - - 47° 70.5° 57.7° - - -
5/24 8:10am 165 1 G 3 67° 49% - - 47° 68.6° 57.7° - - -
5/24 8:00am 70 2 G 4 66° 51% - - 48° 67° 57.7° - - -
5/24 7:50am 148 2 G 3 66° 49% - - 46° 66.6° 57.7° - - -
5/24 7:40am 111 2 G 3 65° 52% - - 47° 65.5° 57.7° - - -
5/24 7:30am 190 1 G 3 64° 56% - - 48° 65.3° 57.7° - - -
5/24 7:20am 40 2 G 5 64° 56% - - 48° 65.3° 57.7° - - -
5/24 7:10am 127 5 G 9 63° 55% - - 46° 65.3° 57.7° - - -
5/24 7:00am 117 4 G 6 61° 61% - - 47° 65.3° 57.7° - - -
5/24 6:50am 97 4 G 6 59° 71% - - 49° 65.3° 57.7° - - -
5/24 6:40am 100 2 G 6 58° 73% - - 49° 65.3° 57.7° - - -
5/24 6:30am 295 4 G 6 60° 62% - - 47° 65.3° 58.5° - - -
5/24 6:20am 252 6 G 13 63° 53% - - 45° 65.3° 59.1° - - -
5/24 6:10am 124 13 G 16 63° 52% - - 45° 65.3° 59.1° - - -
5/24 6:00am 124 14 G 16 62° 54% - - 45° 65.3° 59.1° - - -
5/24 5:50am 121 14 G 17 63° 54% - - 46° 65.3° 59.1° - - -
5/24 5:40am 122 14 G 16 62° 54% - - 46° 65.3° 59.1° - - -
5/24 5:30am 125 14 G 16 62° 56% - - 46° 65.3° 59.1° - - -
5/24 5:20am 126 12 G 15 62° 56% - - 47° 65.3° 59.1° - - -
5/24 5:10am 127 12 G 16 61° 58% - - 47° 65.3° 59.1° - - -
5/24 5:00am 126 13 G 15 61° 59% - - 47° 65.3° 59.1° - - -
5/24 4:50am 127 13 G 16 61° 58% - - 47° 65.3° 59.1° - - -
5/24 4:40am 129 11 G 16 61° 58% - - 47° 65.3° 59.1° - - -
5/24 4:30am 126 12 G 15 61° 59% - - 47° 65.3° 59.1° - - -
5/24 4:20am 118 10 G 13 61° 60% - - 47° 65.3° 59.1° - - -
5/24 4:10am 121 9 G 12 61° 61% - - 48° 65.3° 59.1° - - -
5/24 4:00am 119 9 G 12 61° 63% - - 48° 65.3° 59.1° - - -
5/24 3:50am 87 3 G 9 60° 70% - - 50° 65.3° 59.1° - - -
5/24 3:40am 67 0 G 1 60° 71% - - 50° 65.3° 59.5° - - -
5/24 3:30am 91 1 G 2 60° 71% - - 50° 65.3° 59.5° - - -
5/24 3:20am 45 1 G 3 60° 71% - - 50° 65.3° 59.5° - - -
5/24 3:10am 79 2 G 3 61° 67% - - 50° 65.3° 60.2° - - -
5/24 3:00am 267 2 G 5 63° 63% - - 50° 65.3° 61.6° - - -
5/24 2:50am 118 7 G 11 64° 59% - - 50° 65.3° 63.3° - - -
5/24 2:40am 124 8 G 10 64° 60% - - 50° 65.3° 63.3° - - -
5/24 2:30am 126 9 G 13 64° 60% - - 50° 65.3° 63.3° - - -
5/24 2:20am 126 12 G 15 64° 61% - - 50° 65.3° 63.3° - - -
5/24 2:10am 122 12 G 14 64° 61% - - 50° 65.3° 63.3° - - -
5/24 2:00am 124 13 G 15 64° 61% - - 50° 65.3° 63.3° - - -
5/24 1:50am 126 14 G 16 64° 63% - - 51° 65.3° 63.3° - - -
5/24 1:40am 127 14 G 15 64° 62% - - 51° 65.3° 63.3° - - -
5/24 1:30am 125 12 G 15 64° 61% - - 51° 65.3° 63.9° - - -
5/24 1:20am 127 12 G 14 64° 60% - - 51° 65.3° 63.9° - - -
5/24 1:10am 123 10 G 13 65° 60% - - 51° 65.3° 64.1° - - -
5/24 1:00am 123 12 G 14 65° 60% - - 51° 65.3° 64.1° - - -
5/24 12:50am 124 12 G 15 65° 61% - - 51° 65.3° 64.1° - - -
5/24 12:40am 120 12 G 14 65° 62% - - 51° 65.3° 64.1° - - -
5/24 12:30am 123 10 G 12 65° 61% - - 51° 65.3° 64.1° - - -
5/24 12:20am 119 7 G 10 65° 62% - - 51° 65.3° 64.1° - - -
5/24 12:10am 117 6 G 8 65° 62% - - 52° 65.3° 64.1° - - -
5/24 12:00am 110 2 G 5 64° 64% - - 52° 92.3° 60.8° - - -
5/23 11:50pm 120 9 G 12 65° 61% - - 52° 92.3° 60.8° - - -
5/23 11:40pm 121 9 G 12 66° 61% - - 52° 92.3° 60.8° - - -
5/23 11:30pm 122 8 G 10 66° 61% - - 52° 92.3° 60.8° - - -
5/23 11:20pm 120 7 G 10 66° 60% - - 52° 92.3° 60.8° - - -
5/23 11:10pm 125 8 G 12 67° 59% - - 52° 92.3° 60.8° - - -
5/23 11:00pm 123 10 G 12 67° 59% - - 52° 92.3° 60.8° - - -
5/23 10:50pm 121 10 G 11 67° 58% - - 52° 92.3° 60.8° - - -
5/23 10:40pm 122 9 G 11 68° 58% - - 52° 92.3° 60.8° - - -
5/23 10:30pm 126 8 G 10 68° 58% - - 52° 92.3° 60.8° - - -
5/23 10:20pm 153 4 G 8 68° 59% - - 53° 92.3° 60.8° - - -
5/23 10:10pm 171 2 G 4 68° 60% - - 53° 92.3° 60.8° - - -
5/23 10:00pm 153 4 G 6 68° 59% - - 53° 92.3° 60.8° - - -
5/23 9:50pm 155 3 G 5 69° 57% - - 53° 92.3° 60.8° - - -
5/23 9:40pm 125 4 G 6 69° 57% - - 53° 92.3° 60.8° - - -
5/23 9:30pm 128 4 G 7 70° 56% - - 53° 92.3° 60.8° - - -
5/23 9:20pm 115 2 G 4 70° 55% - - 54° 92.3° 60.8° - - -
5/23 9:10pm 123 4 G 6 71° 54% - - 53° 92.3° 60.8° - - -
5/23 9:00pm 123 2 G 4 72° 53% - - 53° 92.3° 60.8° - - -
5/23 8:50pm 107 3 G 5 72° 52% - - 53° 92.3° 60.8° - - -
5/23 8:40pm 155 2 G 4 72° 52% - - 53° 92.3° 60.8° - - -
5/23 8:30pm 102 2 G 4 72° 51% - - 53° 92.3° 60.8° - - -
5/23 8:20pm 133 2 G 3 73° 49% - - 53° 92.3° 60.8° - - -
5/23 8:10pm 75 2 G 3 74° 48% - - 53° 92.3° 60.8° - - -
5/23 8:00pm 15 2 G 3 75° 45% - - 52° 92.3° 60.8° - - -
5/23 7:50pm 38 2 G 3 76° 43% - - 52° 92.3° 60.8° - - -
5/23 7:40pm 351 2 G 5 77° 40% - - 51° 92.3° 60.8° - - -
5/23 7:30pm 303 6 G 11 79° 36% - - 50° 92.3° 60.8° - - -
5/23 7:20pm 279 8 G 11 80° 35% - - 50° 92.3° 60.8° - - -
5/23 7:10pm 284 6 G 10 80° 36% - - 51° 92.3° 60.8° - - -
5/23 7:00pm 282 8 G 14 80° 38% - - 52° 92.3° 60.8° - - -
5/23 6:50pm 271 13 G 19 80° 37% - - 51° 92.3° 60.8° - - -
5/23 6:40pm 265 14 G 21 80° 36% - - 51° 92.3° 60.8° - - -
5/23 6:30pm 262 11 G 19 81° 34% - - 50° 92.3° 60.8° - - -
5/23 6:20pm 264 13 G 20 82° 33% - - 50° 92.3° 60.8° - - -
5/23 6:10pm 272 12 G 18 82° 32% - - 50° 92.3° 60.8° - - -
5/23 6:00pm 274 12 G 19 83° 32% - - 50° 92.3° 60.8° - - -
5/23 5:50pm 270 13 G 19 84° 31% - - 50° 92.3° 60.8° - - -
5/23 5:40pm 268 12 G 17 84° 31% - - 50° 92.3° 60.8° - - -
5/23 5:30pm 268 12 G 18 84° 31% - - 50° 92.3° 60.8° - - -
5/23 5:20pm 260 11 G 16 85° 31% - - 50° 92.3° 60.8° - - -
5/23 5:10pm 262 14 G 19 84° 31% - - 50° 92.3° 60.8° - - -
5/23 5:00pm 257 14 G 20 85° 30% - - 50° 92.3° 60.8° - - -
5/23 4:50pm 262 13 G 19 85° 29% - - 49° 92.3° 60.8° - - -
5/23 4:40pm 258 14 G 20 84° 29% - - 49° 92.3° 60.8° - - -
5/23 4:30pm 262 14 G 22 85° 29% - - 49° 92.3° 60.8° - - -
5/23 4:20pm 258 14 G 20 85° 29% - - 49° 92.3° 60.8° - - -
5/23 4:10pm 259 14 G 22 85° 29% - - 49° 92.3° 60.8° - - -
5/23 4:00pm 259 14 G 21 84° 30% - - 50° 92.3° 60.8° - - -
5/23 3:50pm 256 14 G 21 85° 30% - - 50° 92.3° 60.8° - - -
5/23 3:40pm 249 14 G 22 84° 28% - - 48° 92.3° 60.8° - - -
5/23 3:30pm 256 13 G 21 84° 33% - - 51° 92.3° 60.8° - - -
5/23 3:20pm 276 12 G 18 83° 35% - - 53° 92.3° 60.8° - - -
5/23 3:10pm 279 14 G 20 82° 38% - - 54° 92.3° 60.8° - - -
5/23 3:00pm 280 14 G 21 82° 39% - - 55° 92.3° 60.8° - - -
5/23 2:50pm 278 14 G 21 82° 39% - - 55° 92.3° 60.8° - - -
5/23 2:40pm 277 14 G 22 82° 39% - - 55° 92.3° 60.8° - - -
5/23 2:30pm 271 15 G 23 82° 38% - - 54° 92.3° 60.8° - - -
5/23 2:20pm 276 14 G 21 83° 38% - - 54° 92.3° 60.8° - - -
5/23 2:10pm 274 14 G 20 82° 38% - - 54° 92.3° 60.8° - - -
5/23 2:00pm 283 14 G 22 82° 39% - - 54° 92.3° 60.8° - - -
5/23 1:50pm 285 15 G 22 82° 38% - - 54° 92.3° 60.8° - - -
5/23 1:40pm 282 16 G 25 83° 37% - - 54° 92.3° 60.8° - - -
5/23 1:30pm 283 16 G 24 83° 35% - - 53° 92.3° 60.8° - - -
5/23 1:20pm 283 16 G 23 84° 34% - - 53° 92.3° 60.8° - - -
5/23 1:10pm 284 16 G 24 84° 34% - - 53° 92.3° 60.8° - - -
5/23 1:00pm 284 16 G 25 85° 33% - - 53° 92.3° 60.8° - - -
5/23 12:50pm 279 16 G 23 85° 31% - - 52° 92.3° 60.8° - - -
5/23 12:40pm 276 15 G 24 86° 29% - - 51° 92.3° 60.8° - - -
5/23 12:30pm 276 15 G 24 87° 27% - - 50° 92.3° 60.8° - - -
5/23 12:20pm 274 16 G 23 89° 25% - - 49° 92.3° 60.8° - - -
5/23 12:10pm 278 14 G 20 89° 24% - - 48° 92.3° 60.8° - - -
5/23 12:00pm 271 14 G 22 90° 22% - - 46° 92.3° 60.8° - - -
5/23 11:50am 268 14 G 19 91° 19% - - 43° 92.3° 60.8° - - -
5/23 11:40am 266 10 G 15 92° 17% - - 41° 92.3° 60.8° - - -
5/23 11:30am 267 8 G 12 91° 16% - - 38° 91.4° 60.8° - - -
5/23 11:20am 268 8 G 14 91° 16% - - 39° 91.4° 60.8° - - -
5/23 11:10am 277 5 G 11 91° 16% - - 38° 90.9° 60.8° - - -
5/23 11:00am 296 5 G 11 90° 15% - - 35° 90.5° 60.8° - - -
5/23 10:50am 298 5 G 9 90° 14% - - 35° 90.2° 60.8° - - -
5/23 10:40am 287 4 G 9 89° 16% - - 36° 89.6° 60.8° - - -
5/23 10:30am 298 3 G 5 88° 16% - - 36° 88.5° 60.8° - - -
5/23 10:20am 292 2 G 5 87° 18% - - 38° 88.4° 60.8° - - -
5/23 10:10am 343 2 G 4 88° 18% - - 39° 88.4° 60.8° - - -
5/23 10:00am 345 1 G 4 86° 19% - - 40° 88° 60.8° - - -
5/23 9:50am 300 1 G 3 84° 21% - - 40° 85.1° 60.8° - - -
5/23 9:40am 314 2 G 4 83° 22% - - 40° 83.4° 60.8° - - -
5/23 9:30am 261 2 G 4 81° 24% - - 40° 81.5° 60.8° - - -
5/23 9:20am 300 2 G 4 79° 25% - - 41° 80.3° 60.8° - - -
5/23 9:10am 301 2 G 3 78° 26% - - 41° 79.3° 60.8° - - -
5/23 9:00am 288 2 G 4 77° 28% - - 41° 79.3° 60.8° - - -
5/23 8:50am 302 1 G 4 78° 28% - - 43° 79.3° 60.8° - - -
5/23 8:40am 5 1 G 2 76° 30% - - 42° 78° 60.8° - - -
5/23 8:30am 69 2 G 3 74° 32% - - 42° 75.4° 60.8° - - -
5/23 8:20am 71 1 G 3 73° 33% - - 43° 73.7° 60.8° - - -
5/23 8:10am 46 1 G 2 71° 37% - - 44° 72.3° 60.8° - - -
5/23 8:00am 56 2 G 3 69° 41% - - 44° 69.8° 60.8° - - -
5/23 7:50am 64 2 G 3 67° 44% - - 45° 68.4° 60.8° - - -
5/23 7:40am 311 2 G 3 66° 47% - - 45° 67.8° 60.8° - - -
5/23 7:30am 288 2 G 4 65° 48% - - 45° 67.8° 60.8° - - -
5/23 7:20am 99 5 G 9 67° 37% - - 40° 67.8° 60.8° - - -
5/23 7:10am 115 8 G 10 67° 37% - - 39° 67.2° 60.8° - - -
5/23 7:00am 120 10 G 12 66° 38% - - 39° 66.4° 60.8° - - -
5/23 6:50am 125 12 G 14 65° 38% - - 39° 65.8° 60.8° - - -
5/23 6:40am 128 13 G 15 64° 39% - - 39° 65.8° 60.8° - - -
5/23 6:30am 124 13 G 17 63° 40% - - 39° 65.8° 60.8° - - -
5/23 6:20am 123 12 G 16 63° 41% - - 39° 65.8° 60.8° - - -
5/23 6:10am 120 12 G 15 63° 41% - - 39° 65.8° 60.8° - - -
5/23 6:00am 121 13 G 16 63° 41% - - 40° 65.8° 60.8° - - -